Time;durP1;ratioP1;P1;durP2;ratioP2;P2;SDS_P1;SDS_P2;PMS_P1;PMS_P2;Temp;Humidity;BMP_temperature;BMP_pressure;BME280_temperature;BME280_humidity;BME280_pressure;Samples;Min_cycle;Max_cycle;Signal;HPM_P1;HPM_P2
2022/05/19 00:03:24;;;;;;;3.43;3.13;;;16.80;99.90;;;;;;4936449;29;20568;-73
2022/05/19 00:05:50;;;;;;;4.50;3.60;;;16.60;99.90;;;;;;4930322;29;20516;-73
2022/05/19 00:08:15;;;;;;;6.57;3.70;;;16.60;99.90;;;;;;4917045;29;20213;-73
2022/05/19 00:10:41;;;;;;;5.57;3.77;;;16.50;99.90;;;;;;4916832;29;20201;-69
2022/05/19 00:13:07;;;;;;;7.07;4.00;;;16.40;99.90;;;;;;4916904;29;20214;-73
2022/05/19 00:15:32;;;;;;;3.97;3.67;;;16.40;99.90;;;;;;4917426;29;20654;-73
2022/05/19 00:17:57;;;;;;;4.20;3.07;;;16.30;99.90;;;;;;4917618;29;20616;-73
2022/05/19 00:20:23;;;;;;;3.47;3.17;;;16.20;99.90;;;;;;4917477;29;20225;-70
2022/05/19 00:22:48;;;;;;;4.00;3.33;;;16.10;99.90;;;;;;4917321;29;20209;-73
2022/05/19 00:25:14;;;;;;;4.27;3.83;;;16.00;99.90;;;;;;4917042;29;20655;-71
2022/05/19 00:27:39;;;;;;;3.33;3.07;;;16.00;99.90;;;;;;4917454;29;20214;-72
2022/05/19 00:30:05;;;;;;;4.17;3.40;;;15.90;99.90;;;;;;4922491;29;20751;-73
2022/05/19 00:32:31;;;;;;;3.97;3.67;;;15.80;99.90;;;;;;4916864;29;20225;-74
2022/05/19 00:34:56;;;;;;;3.70;3.30;;;15.80;99.90;;;;;;4915937;29;20457;-72
2022/05/19 00:37:22;;;;;;;4.37;3.93;;;15.70;99.90;;;;;;4917726;29;20268;-72
2022/05/19 00:39:47;;;;;;;4.33;3.93;;;15.70;99.90;;;;;;4916900;29;20579;-74
2022/05/19 00:44:59;;;;;;;3.63;3.30;;;15.60;99.90;;;;;;4909140;29;20690;-73
2022/05/19 00:47:26;;;;;;;3.50;3.20;;;15.50;99.90;;;;;;4916087;29;20422;-73
2022/05/19 00:49:52;;;;;;;6.83;3.60;;;15.50;99.90;;;;;;4915109;29;20672;-73
2022/05/19 00:52:29;;;;;;;4.30;3.50;;;15.50;99.90;;;;;;4916057;29;20541;-72
2022/05/19 00:55:14;;;;;;;5.37;3.97;;;15.40;99.90;;;;;;4917190;29;20889;-73
2022/05/19 00:57:52;;;;;;;5.30;4.30;;;15.40;99.90;;;;;;4916402;29;20418;-72
2022/05/19 02:31:25;;;;;;;4.60;4.30;;;13.80;99.90;;;;;;5643797;23;20496;-73
2022/05/19 02:33:51;;;;;;;6.47;3.83;;;13.80;99.90;;;;;;4957985;28;20494;-72
2022/05/19 02:36:16;;;;;;;4.13;3.70;;;13.70;99.90;;;;;;4952313;29;20195;-73
2022/05/19 02:38:42;;;;;;;4.70;3.90;;;13.70;99.90;;;;;;4950731;28;20271;-72
2022/05/19 02:41:07;;;;;;;4.53;4.13;;;13.60;99.90;;;;;;4952585;28;20685;-72
2022/05/19 02:43:33;;;;;;;4.50;4.03;;;13.50;99.90;;;;;;4951932;28;20243;-73
2022/05/19 02:45:58;;;;;;;5.07;4.13;;;13.60;99.90;;;;;;4952925;28;20213;-72
2022/05/19 02:48:24;;;;;;;8.20;5.43;;;13.60;99.90;;;;;;4945112;28;20205;-72
2022/05/19 02:50:50;;;;;;;4.20;3.77;;;13.50;99.90;;;;;;4934437;29;20193;-72
2022/05/19 02:53:17;;;;;;;4.40;4.10;;;13.50;99.90;;;;;;4936645;29;20216;-74
2022/05/19 02:55:43;;;;;;;5.10;4.50;;;13.40;99.90;;;;;;4938714;29;20584;-72
2022/05/19 02:58:10;;;;;;;4.13;3.93;;;13.40;99.90;;;;;;4951834;28;20486;-72
2022/05/19 03:00:36;;;;;;;5.90;5.50;;;13.40;99.90;;;;;;4944250;28;20864;-72
2022/05/19 03:03:02;;;;;;;5.30;4.43;;;13.40;99.90;;;;;;4937505;29;20488;-73
2022/05/19 03:05:30;;;;;;;4.90;4.50;;;13.30;99.90;;;;;;4956615;28;20216;-73
2022/05/19 03:07:56;;;;;;;7.17;5.00;;;13.30;99.90;;;;;;4956706;28;20183;-72
2022/05/19 03:10:22;;;;;;;5.13;4.63;;;13.20;99.90;;;;;;4948190;28;20451;-73
2022/05/19 03:12:48;;;;;;;5.50;4.10;;;13.20;99.90;;;;;;4956220;28;20475;-72
2022/05/19 03:15:14;;;;;;;5.13;4.30;;;13.20;99.90;;;;;;4946865;28;20189;-72
2022/05/19 03:17:40;;;;;;;4.40;4.00;;;13.10;99.90;;;;;;4937404;29;20177;-73
2022/05/19 03:20:07;;;;;;;3.97;3.77;;;13.10;99.90;;;;;;4945700;29;20984;-73
2022/05/19 03:22:33;;;;;;;4.10;3.80;;;13.00;99.90;;;;;;4953759;28;20212;-72
2022/05/19 03:24:59;;;;;;;6.47;4.33;;;13.00;99.90;;;;;;4948834;28;20443;-72
2022/05/19 03:27:25;;;;;;;4.83;4.53;;;13.10;99.90;;;;;;4936857;29;20922;-72
2022/05/19 03:29:52;;;;;;;4.77;4.37;;;13.00;99.90;;;;;;4944508;29;20239;-72
2022/05/19 03:32:18;;;;;;;5.77;5.10;;;13.00;99.90;;;;;;4954925;28;20475;-72
2022/05/19 03:34:44;;;;;;;5.70;5.17;;;13.00;99.90;;;;;;4955454;28;20963;-74
2022/05/19 03:37:10;;;;;;;4.60;4.23;;;13.00;99.90;;;;;;4956105;28;20424;-72
2022/05/19 03:39:36;;;;;;;4.77;4.47;;;13.00;99.90;;;;;;4955746;29;20289;-72
2022/05/19 03:42:03;;;;;;;6.20;4.27;;;13.00;99.90;;;;;;4947452;29;20715;-72
2022/05/19 03:44:29;;;;;;;4.27;3.90;;;13.00;99.90;;;;;;4955351;28;20946;-73
2022/05/19 03:46:54;;;;;;;4.80;4.40;;;12.90;99.90;;;;;;4955408;28;20475;-72
2022/05/19 03:49:20;;;;;;;5.17;3.93;;;12.90;99.90;;;;;;4955778;28;20269;-72
2022/05/19 03:51:46;;;;;;;7.93;4.50;;;12.90;99.90;;;;;;4947432;28;20201;-72
2022/05/19 03:54:12;;;;;;;6.80;5.03;;;12.90;99.90;;;;;;4954901;28;20184;-72
2022/05/19 03:56:37;;;;;;;5.20;4.17;;;12.90;99.90;;;;;;4954954;28;20506;-73
2022/05/19 03:59:04;;;;;;;6.23;4.40;;;12.90;99.90;;;;;;4954656;28;20486;-72
2022/05/19 04:01:30;;;;;;;6.20;4.53;;;12.90;99.90;;;;;;4954938;29;20208;-72
2022/05/19 04:03:56;;;;;;;4.90;4.30;;;12.90;99.90;;;;;;4955251;28;20451;-73
2022/05/19 04:06:21;;;;;;;4.17;3.83;;;13.00;99.90;;;;;;4952353;28;20452;-73
2022/05/19 04:08:48;;;;;;;4.83;4.43;;;13.00;99.90;;;;;;4935976;29;20481;-73
2022/05/19 04:11:14;;;;;;;5.00;4.17;;;13.10;99.90;;;;;;4936010;28;20625;-73
2022/05/19 04:13:40;;;;;;;9.23;4.73;;;13.10;99.90;;;;;;4947089;28;20869;-72
2022/05/19 04:16:05;;;;;;;5.33;4.70;;;13.20;99.90;;;;;;4953555;28;20440;-73
2022/05/19 04:18:31;;;;;;;4.77;4.30;;;13.20;99.90;;;;;;4955113;28;20188;-74
2022/05/19 04:20:57;;;;;;;5.53;4.63;;;13.30;99.90;;;;;;4955451;28;20193;-74
2022/05/19 04:23:23;;;;;;;7.23;4.63;;;13.40;99.90;;;;;;4953556;28;20231;-74
2022/05/19 04:25:50;;;;;;;4.73;4.33;;;13.40;99.90;;;;;;4951415;29;20267;-73
2022/05/19 04:28:16;;;;;;;4.60;3.30;;;13.60;99.90;;;;;;4955058;28;20943;-77
2022/05/19 04:30:41;;;;;;;4.87;4.47;;;13.90;99.90;;;;;;4946841;28;20444;-74
2022/05/19 04:33:08;;;;;;;4.90;4.40;;;14.20;99.90;;;;;;4954781;28;20685;-74
2022/05/19 04:35:34;;;;;;;5.13;4.60;;;14.30;99.90;;;;;;4939353;28;20186;-74
2022/05/19 04:38:12;;;;;;;4.30;3.90;;;14.30;99.90;;;;;;4940901;29;20472;-74
2022/05/19 04:40:39;;;;;;;4.80;4.27;;;14.30;99.90;;;;;;4954625;28;20204;-74
2022/05/19 04:43:06;;;;;;;4.00;3.57;;;14.30;99.90;;;;;;4951703;28;20440;-74
2022/05/19 04:45:32;;;;;;;4.23;3.93;;;14.40;99.90;;;;;;4949966;28;20507;-73
2022/05/19 04:47:58;;;;;;;4.70;4.00;;;14.50;99.90;;;;;;4954655;28;20467;-73
2022/05/19 04:50:24;;;;;;;4.50;4.10;;;14.50;99.90;;;;;;4934275;29;20839;-71
2022/05/19 04:52:49;;;;;;;5.83;3.97;;;14.70;99.90;;;;;;4935557;29;20252;-73
2022/05/19 04:55:15;;;;;;;5.30;4.20;;;14.80;99.90;;;;;;4936584;29;20190;-75
2022/05/19 04:57:43;;;;;;;4.50;4.20;;;15.00;99.90;;;;;;4935805;29;20701;-71
2022/05/19 05:00:11;;;;;;;4.37;3.97;;;15.20;99.90;;;;;;4943563;29;20193;-72
2022/05/19 05:02:36;;;;;;;5.20;4.70;;;15.40;99.90;;;;;;4935441;29;20437;-72
2022/05/19 05:05:02;;;;;;;5.47;4.53;;;15.70;99.90;;;;;;4948174;29;20479;-73
2022/05/19 05:07:28;;;;;;;10.53;4.50;;;16.00;99.90;;;;;;4935266;29;20196;-74
2022/05/19 05:09:53;;;;;;;4.20;3.30;;;16.90;99.90;;;;;;4935125;29;20815;-74
2022/05/19 05:12:19;;;;;;;6.10;3.30;;;18.70;99.90;;;;;;4945855;28;20212;-73
2022/05/19 05:14:44;;;;;;;3.93;3.30;;;20.70;99.90;;;;;;4947507;28;20189;-73
2022/05/19 05:17:10;;;;;;;4.73;4.23;;;22.60;99.90;;;;;;4951690;28;20712;-72
2022/05/19 05:19:35;;;;;;;9.83;7.67;;;23.70;99.90;;;;;;4952704;28;20193;-71
2022/05/19 05:22:01;;;;;;;3.57;3.37;;;24.40;99.90;;;;;;4951695;28;20258;-71
2022/05/19 05:24:27;;;;;;;3.10;2.83;;;25.20;99.90;;;;;;4951462;28;20290;-70
2022/05/19 05:26:52;;;;;;;3.57;3.27;;;24.80;99.90;;;;;;4952323;28;20700;-71
2022/05/19 05:29:19;;;;;;;3.43;3.17;;;24.50;99.90;;;;;;4952580;28;20515;-72
2022/05/19 05:31:45;;;;;;;4.40;3.70;;;24.50;99.90;;;;;;4950136;28;20303;-74
2022/05/19 05:34:11;;;;;;;4.33;3.37;;;24.40;99.90;;;;;;4952456;28;20423;-71
2022/05/19 05:36:37;;;;;;;4.07;2.40;;;24.40;99.90;;;;;;4944019;28;20929;-71
2022/05/19 05:39:03;;;;;;;2.97;2.67;;;24.60;99.90;;;;;;4952774;28;20187;-72
2022/05/19 05:41:29;;;;;;;3.47;3.27;;;25.20;99.90;;;;;;4952334;28;20452;-73
2022/05/19 05:43:54;;;;;;;3.77;3.03;;;25.20;99.90;;;;;;4953742;29;20180;-71
2022/05/19 05:46:20;;;;;;;4.97;3.73;;;25.20;99.90;;;;;;4952912;28;20241;-71
2022/05/19 05:48:48;;;;;;;9.83;3.97;;;25.20;99.90;;;;;;4953637;28;20650;-74
2022/05/19 05:51:15;;;;;;;5.13;4.07;;;25.00;99.90;;;;;;4949785;28;20316;-74
2022/05/19 05:53:42;;;;;;;11.20;5.10;;;25.00;99.90;;;;;;4935292;29;20960;-75
2022/05/19 05:56:10;;;;;;;4.90;4.50;;;24.90;99.90;;;;;;4934370;29;20926;-75
2022/05/19 05:58:36;;;;;;;11.83;5.03;;;24.80;99.90;;;;;;4945499;29;20444;-74
2022/05/19 06:01:04;;;;;;;8.53;4.77;;;24.50;99.90;;;;;;4950275;28;20451;-74
2022/05/19 06:03:30;;;;;;;5.67;3.60;;;24.40;99.90;;;;;;4937305;28;20874;-75
2022/05/19 06:05:55;;;;;;;10.30;4.57;;;24.50;99.90;;;;;;4934643;29;20417;-71
2022/05/19 06:08:21;;;;;;;7.87;4.50;;;24.70;99.90;;;;;;4947806;28;20550;-71
2022/05/19 06:10:46;;;;;;;9.10;3.97;;;25.00;99.90;;;;;;4953167;28;20212;-71
2022/05/19 06:13:13;;;;;;;7.70;4.07;;;25.00;99.90;;;;;;4952822;28;20328;-71
2022/05/19 06:15:39;;;;;;;11.50;4.67;;;25.10;99.90;;;;;;4953215;28;20177;-71
2022/05/19 06:18:04;;;;;;;5.93;4.23;;;25.20;99.90;;;;;;4952343;28;20537;-71
2022/05/19 06:20:30;;;;;;;5.27;4.00;;;24.90;99.90;;;;;;4935012;28;20268;-71
2022/05/19 06:22:56;;;;;;;11.53;3.60;;;24.80;99.90;;;;;;4935120;29;20209;-71
2022/05/19 06:25:22;;;;;;;3.80;2.57;;;25.00;99.90;;;;;;4933718;29;20650;-71
2022/05/19 06:27:49;;;;;;;3.83;3.03;;;25.10;99.90;;;;;;4936089;29;20311;-71
2022/05/19 06:30:15;;;;;;;4.70;2.30;;;25.40;99.90;;;;;;4952016;28;20447;-71
2022/05/19 06:32:42;;;;;;;2.67;2.47;;;25.60;99.90;;;;;;4952697;28;20547;-71
2022/05/19 06:35:10;;;;;;;6.63;2.60;;;25.70;99.90;;;;;;4939365;29;20980;-71
2022/05/19 06:37:35;;;;;;;5.43;2.40;;;25.80;99.90;;;;;;4937717;29;20409;-71
2022/05/19 06:40:01;;;;;;;6.53;2.90;;;26.10;99.90;;;;;;4953206;28;20443;-71
2022/05/19 06:42:26;;;;;;;5.53;2.07;;;26.20;99.90;;;;;;4956679;28;20205;-72
2022/05/19 06:44:52;;;;;;;3.80;2.40;;;26.10;99.90;;;;;;4952954;28;20186;-71
2022/05/19 06:47:18;;;;;;;2.67;2.47;;;26.20;99.90;;;;;;4937810;29;20229;-71
2022/05/19 06:49:48;;;;;;;2.60;2.17;;;26.40;99.90;;;;;;4947612;29;20203;-70
2022/05/19 06:52:17;;;;;;;3.50;2.67;;;26.60;99.90;;;;;;4955194;28;20697;-71
2022/05/19 06:54:53;;;;;;;4.77;2.70;;;27.00;99.90;;;;;;4949929;29;20448;-71
2022/05/19 06:57:20;;;;;;;4.03;2.20;;;27.40;99.90;;;;;;4937638;29;20789;-71
2022/05/19 06:59:47;;;;;;;4.33;3.00;;;27.00;99.90;;;;;;4944449;29;20873;-71
2022/05/19 07:02:13;;;;;;;2.00;1.87;;;27.00;99.90;;;;;;4956196;28;20468;-73
2022/05/19 07:04:39;;;;;;;3.67;2.20;;;26.90;99.90;;;;;;4956372;28;20431;-71
2022/05/19 07:07:06;;;;;;;4.20;2.03;;;27.10;99.90;;;;;;4956821;28;20423;-71
2022/05/19 07:09:32;;;;;;;3.23;2.37;;;27.10;99.90;;;;;;4955694;28;20176;-71
2022/05/19 07:11:59;;;;;;;3.33;2.53;;;27.20;99.90;;;;;;4938435;28;20475;-71
2022/05/19 07:14:25;;;;;;;4.20;2.10;;;26.70;99.90;;;;;;4940001;29;20436;-71
2022/05/19 07:16:50;;;;;;;2.30;2.10;;;26.80;99.90;;;;;;4955331;28;20805;-70
2022/05/19 07:22:04;;;;;;;3.17;2.47;;;27.30;99.90;;;;;;4955194;28;20227;-71
2022/05/19 07:24:29;;;;;;;3.13;2.90;;;27.00;99.90;;;;;;4956099;28;20409;-71
2022/05/19 07:26:55;;;;;;;3.73;2.80;;;26.80;99.90;;;;;;4941825;28;20913;-71
2022/05/19 07:29:22;;;;;;;4.40;2.53;;;27.30;99.90;;;;;;4938750;28;20590;-71
2022/05/19 07:31:49;;;;;;;7.70;2.60;;;27.80;99.90;;;;;;4954018;28;20303;-72
2022/05/19 07:34:17;;;;;;;4.50;2.33;;;27.60;99.90;;;;;;4956017;28;20463;-71
2022/05/19 07:36:43;;;;;;;2.37;2.27;;;27.60;99.90;;;;;;4946748;28;20957;-71
2022/05/19 07:39:09;;;;;;;3.00;2.43;;;27.90;99.90;;;;;;4936807;29;20425;-71
2022/05/19 07:41:35;;;;;;;3.90;2.70;;;28.40;99.90;;;;;;4943766;29;20579;-71
2022/05/19 07:44:00;;;;;;;3.60;2.67;;;28.60;99.90;;;;;;4941655;28;20437;-71
2022/05/19 07:46:28;;;;;;;2.67;2.53;;;28.90;99.90;;;;;;4953894;28;20672;-71
2022/05/19 07:48:55;;;;;;;6.00;2.63;;;29.00;99.90;;;;;;4956142;28;20259;-71
2022/05/19 07:51:26;;;;;;;2.57;2.37;;;28.80;99.90;;;;;;4953962;28;20448;-71
2022/05/19 07:53:53;;;;;;;2.47;2.30;;;28.60;99.90;;;;;;4955307;28;20594;-71
2022/05/19 07:56:19;;;;;;;4.37;2.53;;;28.50;99.90;;;;;;4955941;28;20427;-71
2022/05/19 07:58:46;;;;;;;2.97;2.77;;;28.90;99.90;;;;;;4955474;28;20432;-71
2022/05/19 08:01:12;;;;;;;3.20;2.90;;;29.20;99.90;;;;;;4941427;28;20612;-70
2022/05/19 08:03:38;;;;;;;3.03;2.10;;;29.30;99.90;;;;;;4941177;29;20880;-71
2022/05/19 08:06:07;;;;;;;2.50;2.10;;;29.70;99.90;;;;;;4936167;29;20421;-71
2022/05/19 08:08:32;;;;;;;4.77;2.60;;;29.80;99.90;;;;;;4937595;29;20282;-71
2022/05/19 08:10:58;;;;;;;5.60;2.20;;;29.70;99.90;;;;;;4935953;29;20461;-71
2022/05/19 08:16:08;;;;;;;2.53;2.33;;;30.10;99.90;;;;;;4946167;28;20272;-71
2022/05/19 08:18:33;;;;;;;6.23;2.40;;;30.30;99.90;;;;;;4946203;29;20515;-71
2022/05/19 08:21:04;;;;;;;2.97;2.50;;;30.70;99.90;;;;;;4955008;28;20243;-72
2022/05/19 08:23:35;;;;;;;4.47;2.13;;;30.70;99.90;;;;;;4948477;28;20212;-73
2022/05/19 08:26:01;;;;;;;5.27;2.30;;;30.90;99.90;;;;;;4954690;28;20444;-71
2022/05/19 08:28:29;;;;;;;2.67;2.40;;;31.30;99.90;;;;;;4950283;28;20427;-71
2022/05/19 08:31:09;;;;;;;3.07;2.47;;;31.80;99.90;;;;;;4948679;28;20968;-71
2022/05/19 08:33:36;;;;;;;7.90;2.43;;;31.50;99.90;;;;;;4936872;29;20468;-71
2022/05/19 08:36:02;;;;;;;2.90;2.40;;;31.70;99.90;;;;;;4950886;28;21016;-72
2022/05/19 08:38:28;;;;;;;5.93;2.50;;;32.20;99.90;;;;;;4953974;28;20439;-71
2022/05/19 08:41:04;;;;;;;4.23;2.60;;;32.30;99.90;;;;;;4954614;28;20822;-71
2022/05/19 08:43:41;;;;;;;2.90;2.70;;;32.80;99.90;;;;;;4954559;28;20634;-71
2022/05/19 08:46:06;;;;;;;3.73;2.63;;;33.40;99.90;;;;;;4952700;28;20428;-71
2022/05/19 08:48:35;;;;;;;6.30;2.23;;;33.40;99.90;;;;;;4954565;29;20980;-71
2022/05/19 08:51:04;;;;;;;3.97;2.30;;;33.30;99.60;;;;;;4937179;28;20209;-72
2022/05/19 08:53:38;;;;;;;2.30;2.10;;;33.70;99.90;;;;;;4935347;29;20472;-71
2022/05/19 08:56:12;;;;;;;3.33;2.40;;;34.30;99.90;;;;;;4945912;28;20438;-73
2022/05/19 08:58:48;;;;;;;2.13;1.93;;;34.90;99.00;;;;;;4935380;29;20454;-71
2022/05/19 09:01:17;;;;;;;2.40;2.20;;;35.20;98.80;;;;;;4950998;28;20832;-71
2022/05/19 09:04:26;;;;;;;5.00;2.00;;;35.50;97.30;;;;;;4954445;28;20794;-71
2022/05/19 09:10:33;;;;;;;2.67;2.47;;;34.90;94.80;;;;;;4913380;29;20420;-72
2022/05/19 09:13:16;;;;;;;4.70;2.73;;;34.40;94.50;;;;;;4932570;28;20522;-71
2022/05/19 09:15:44;;;;;;;3.57;2.73;;;34.40;93.90;;;;;;4952782;28;20436;-72
2022/05/19 09:18:11;;;;;;;5.80;2.40;;;34.60;95.40;;;;;;4953986;28;20413;-72
2022/05/19 09:20:53;;;;;;;2.83;2.53;;;35.00;94.10;;;;;;4950867;28;20437;-70
2022/05/19 09:23:19;;;;;;;2.57;2.47;;;35.50;95.90;;;;;;4933503;29;20421;-72
2022/05/19 09:25:49;;;;;;;3.70;2.57;;;35.00;93.70;;;;;;4936000;29;20443;-72
2022/05/19 09:28:15;;;;;;;4.50;2.17;;;35.20;94.60;;;;;;4935828;29;20444;-72
2022/05/19 09:30:49;;;;;;;7.10;2.60;;;35.50;95.50;;;;;;4939015;29;20441;-72
2022/05/19 09:33:35;;;;;;;1.93;1.83;;;35.90;93.00;;;;;;4949261;28;20211;-73
2022/05/19 09:36:12;;;;;;;4.07;3.37;;;35.60;93.70;;;;;;4953769;29;20979;-72
2022/05/19 09:38:45;;;;;;;2.50;2.30;;;36.00;93.20;;;;;;4948297;28;20444;-72
2022/05/19 09:41:28;;;;;;;2.63;2.33;;;35.90;93.20;;;;;;4953145;28;20428;-74
2022/05/19 09:43:56;;;;;;;7.43;4.57;;;36.10;92.30;;;;;;4935242;29;20802;-72
2022/05/19 09:46:25;;;;;;;4.00;2.63;;;36.00;91.80;;;;;;4950275;29;20451;-72
2022/05/19 09:49:03;;;;;;;3.03;2.30;;;36.20;91.50;;;;;;4945719;29;20495;-72
2022/05/19 09:51:41;;;;;;;2.40;2.30;;;36.10;91.40;;;;;;4934306;29;20441;-72
2022/05/19 09:54:12;;;;;;;2.87;2.67;;;36.20;90.90;;;;;;4953323;29;20467;-72
2022/05/19 09:56:45;;;;;;;6.80;2.47;;;36.20;89.20;;;;;;4954331;28;20477;-74
2022/05/19 09:59:17;;;;;;;3.43;2.60;;;35.90;90.90;;;;;;4945723;28;20853;-72
2022/05/19 10:01:46;;;;;;;3.70;2.87;;;36.00;90.90;;;;;;4943286;28;21011;-72
2022/05/19 10:04:37;;;;;;;5.23;2.30;;;35.90;92.30;;;;;;4951349;28;20440;-71
2022/05/19 10:07:35;;;;;;;2.63;2.23;;;35.50;91.00;;;;;;4953823;28;20420;-74
2022/05/19 10:10:00;;;;;;;3.43;2.13;;;35.40;91.70;;;;;;4942779;29;20445;-72
2022/05/19 10:12:29;;;;;;;1.97;1.87;;;35.80;90.80;;;;;;4934314;29;20460;-73
2022/05/19 10:15:04;;;;;;;2.57;2.37;;;35.90;91.00;;;;;;4940133;29;20172;-71
2022/05/19 10:17:41;;;;;;;3.73;2.70;;;35.90;90.80;;;;;;4953525;28;20400;-71
2022/05/19 10:20:21;;;;;;;4.00;2.57;;;36.00;91.50;;;;;;4953075;28;20440;-72
2022/05/19 10:22:47;;;;;;;3.03;2.57;;;36.00;90.90;;;;;;4953343;28;20428;-72
2022/05/19 10:25:46;;;;;;;3.07;2.43;;;36.10;91.30;;;;;;4953167;28;20440;-72
2022/05/19 10:32:06;;;;;;;2.80;2.20;;;36.00;90.00;;;;;;4951394;28;20530;-72
2022/05/19 10:35:01;;;;;;;2.83;2.57;;;35.70;88.60;;;;;;4945330;28;20441;-72
2022/05/19 10:37:47;;;;;;;2.47;2.10;;;35.80;89.60;;;;;;4934081;29;20413;-72
2022/05/19 10:40:19;;;;;;;6.77;2.50;;;35.80;90.30;;;;;;4943884;28;20516;-72
2022/05/19 10:43:00;;;;;;;3.60;2.23;;;36.10;89.00;;;;;;4953397;28;20472;-72
2022/05/19 10:45:39;;;;;;;5.23;2.57;;;36.00;90.50;;;;;;4952041;28;20428;-72
2022/05/19 10:48:35;;;;;;;3.30;2.40;;;36.30;89.80;;;;;;4953234;28;20445;-72
2022/05/19 10:51:16;;;;;;;3.53;2.70;;;36.30;88.30;;;;;;4949184;28;20456;-72
2022/05/19 10:54:07;;;;;;;6.63;2.80;;;36.40;88.00;;;;;;4934076;29;20457;-73
2022/05/19 10:56:45;;;;;;;3.67;3.20;;;36.50;90.20;;;;;;4935172;29;20444;-72
2022/05/19 10:59:42;;;;;;;6.30;2.97;;;36.30;89.80;;;;;;4933787;29;20413;-72
2022/05/19 11:02:18;;;;;;;4.50;2.83;;;36.20;87.70;;;;;;4936846;28;20479;-72
2022/05/19 11:04:59;;;;;;;3.40;3.20;;;35.30;88.60;;;;;;4933785;29;20401;-72
2022/05/19 11:07:37;;;;;;;6.60;2.60;;;34.80;88.80;;;;;;4933791;29;20421;-72
2022/05/19 11:10:37;;;;;;;3.40;2.90;;;34.70;90.10;;;;;;4933957;29;20417;-72
2022/05/19 11:13:16;;;;;;;6.57;2.77;;;34.80;89.80;;;;;;4938402;28;20508;-74
2022/05/19 11:15:48;;;;;;;3.60;3.30;;;34.40;90.10;;;;;;4943109;28;20502;-72
2022/05/19 11:18:21;;;;;;;3.40;3.10;;;34.50;89.80;;;;;;4952706;28;20408;-72
2022/05/19 11:21:12;;;;;;;3.10;2.90;;;34.40;90.60;;;;;;4953300;28;20479;-72
2022/05/19 11:24:00;;;;;;;3.10;2.80;;;34.00;89.70;;;;;;4952942;28;20447;-71
2022/05/19 11:26:47;;;;;;;5.03;3.57;;;34.20;90.80;;;;;;4960999;28;20491;-72
2022/05/19 11:29:31;;;;;;;3.57;3.27;;;34.50;90.70;;;;;;4959902;28;20491;-71
2022/05/19 11:32:18;;;;;;;7.20;3.20;;;34.70;90.60;;;;;;4954196;28;20476;-72
2022/05/19 11:34:58;;;;;;;3.90;3.50;;;34.30;91.00;;;;;;4969087;28;20434;-71
2022/05/19 11:37:42;;;;;;;3.90;3.50;;;34.40;90.80;;;;;;4956401;28;20475;-71
2022/05/19 11:40:21;;;;;;;6.00;3.20;;;34.30;90.70;;;;;;4965430;28;20446;-71
2022/05/19 11:42:58;;;;;;;4.20;3.80;;;34.30;91.30;;;;;;4949808;28;20466;-72
2022/05/19 11:45:31;;;;;;;4.60;4.20;;;34.50;92.00;;;;;;4954120;29;21003;-71
2022/05/19 11:56:49;;;;;;;4.47;3.23;;;33.30;91.20;;;;;;4936373;29;21046;-71
2022/05/19 11:59:16;;;;;;;2.97;2.77;;;33.10;92.00;;;;;;4953070;28;20440;-71
2022/05/19 12:01:49;;;;;;;8.63;3.33;;;33.20;92.50;;;;;;4954601;29;20472;-71
2022/05/19 12:04:30;;;;;;;7.40;3.73;;;33.00;92.90;;;;;;4945718;28;20431;-71
2022/05/19 12:06:59;;;;;;;11.40;3.60;;;33.10;92.40;;;;;;4936368;29;20423;-71
2022/05/19 12:09:41;;;;;;;5.33;3.33;;;32.60;92.80;;;;;;4937479;29;20488;-72
2022/05/19 12:12:29;;;;;;;11.80;3.90;;;32.70;93.90;;;;;;4935813;29;20492;-73
2022/05/19 12:15:13;;;;;;;6.07;3.40;;;32.90;94.30;;;;;;4951620;28;20540;-73
2022/05/19 12:17:43;;;;;;;3.53;3.23;;;32.80;93.10;;;;;;4955511;29;20416;-73
2022/05/19 12:20:42;;;;;;;3.53;2.77;;;33.10;94.00;;;;;;4939422;28;20974;-71
2022/05/19 12:23:41;;;;;;;3.23;3.03;;;33.10;92.40;;;;;;4946716;28;20510;-72
2022/05/19 12:26:28;;;;;;;3.77;3.07;;;33.10;93.30;;;;;;4948701;28;20503;-73
2022/05/19 12:29:04;;;;;;;4.53;3.30;;;33.30;92.30;;;;;;4952883;28;20490;-72
2022/05/19 12:34:22;;;;;;;4.83;3.20;;;33.50;93.40;;;;;;4938932;29;20922;-72
2022/05/19 12:37:05;;;;;;;3.87;3.30;;;33.50;93.30;;;;;;4949842;28;20530;-71
2022/05/19 12:39:48;;;;;;;6.20;3.13;;;33.60;93.50;;;;;;4950608;28;20460;-72
2022/05/19 12:42:24;;;;;;;7.40;3.57;;;33.60;93.60;;;;;;4934153;28;20536;-73
2022/05/19 12:44:53;;;;;;;12.10;4.17;;;33.60;93.30;;;;;;4939479;29;20455;-71
2022/05/19 12:47:20;;;;;;;4.40;4.00;;;33.20;92.30;;;;;;4950213;28;20483;-72
2022/05/19 12:50:01;;;;;;;5.13;3.77;;;33.00;92.20;;;;;;4951837;28;20868;-72
2022/05/19 12:52:58;;;;;;;5.37;3.47;;;32.70;93.00;;;;;;4934097;28;20473;-72
2022/05/19 12:55:23;;;;;;;6.33;3.67;;;32.70;93.70;;;;;;4931673;28;20895;-75
2022/05/19 12:57:55;;;;;;;4.37;4.10;;;32.40;92.90;;;;;;4937712;28;20486;-73
2022/05/19 13:00:23;;;;;;;5.63;3.60;;;32.20;93.50;;;;;;4940213;29;20204;-74
2022/05/19 13:03:27;;;;;;;4.57;4.10;;;32.40;93.70;;;;;;4953039;28;20929;-74
2022/05/19 13:05:57;;;;;;;8.80;4.23;;;32.30;93.30;;;;;;4912394;29;20909;-74
2022/05/19 13:08:35;;;;;;;6.50;3.90;;;32.40;94.00;;;;;;4911919;29;20486;-75
2022/05/19 13:11:07;;;;;;;4.80;3.77;;;32.60;94.30;;;;;;4931688;28;20603;-74
2022/05/19 13:13:40;;;;;;;5.00;3.50;;;32.60;95.00;;;;;;4970444;28;20554;-73
2022/05/19 13:16:28;;;;;;;4.17;3.57;;;32.60;94.00;;;;;;4959503;28;20439;-73
2022/05/19 13:19:00;;;;;;;3.67;3.33;;;32.60;94.20;;;;;;4935090;29;20410;-72
2022/05/19 13:21:38;;;;;;;7.37;4.07;;;32.40;93.60;;;;;;4935661;29;20456;-74
2022/05/19 13:24:09;;;;;;;5.97;4.23;;;32.20;93.70;;;;;;4935232;29;20417;-72
2022/05/19 13:26:40;;;;;;;4.00;3.63;;;31.90;94.00;;;;;;4935952;29;20957;-72
2022/05/19 13:32:00;;;;;;;6.20;4.60;;;31.70;95.10;;;;;;4944195;28;20587;-72
2022/05/19 13:34:30;;;;;;;4.03;3.63;;;31.80;94.80;;;;;;4953862;28;20917;-71
2022/05/19 13:37:00;;;;;;;4.70;3.80;;;31.70;94.90;;;;;;4953447;28;20781;-72
2022/05/19 13:39:27;;;;;;;4.27;3.87;;;31.50;94.70;;;;;;4941268;28;20452;-72
2022/05/19 13:41:56;;;;;;;5.23;4.50;;;31.50;95.10;;;;;;4934108;29;20805;-72
2022/05/19 13:44:34;;;;;;;4.60;4.20;;;31.50;95.60;;;;;;4953563;28;20432;-71
2022/05/19 13:47:00;;;;;;;5.20;4.80;;;31.60;96.60;;;;;;4953281;28;20523;-72
2022/05/19 13:49:27;;;;;;;4.00;3.70;;;31.60;95.60;;;;;;4945569;28;20956;-72
2022/05/19 13:51:56;;;;;;;10.83;4.10;;;31.80;96.70;;;;;;4954370;28;20694;-72
2022/05/19 13:54:41;;;;;;;4.30;3.90;;;32.00;98.60;;;;;;4939379;28;20480;-71
2022/05/19 13:57:10;;;;;;;4.77;3.73;;;32.10;97.70;;;;;;4934464;29;20429;-72
2022/05/19 13:59:37;;;;;;;8.60;4.33;;;32.20;96.10;;;;;;4949187;28;20448;-72
2022/05/19 14:02:08;;;;;;;4.40;3.83;;;32.30;96.50;;;;;;4953275;28;20959;-71
2022/05/19 14:04:39;;;;;;;4.70;3.70;;;32.40;96.00;;;;;;4952856;28;20443;-72
2022/05/19 14:07:07;;;;;;;4.30;3.90;;;32.40;95.80;;;;;;4953509;28;20431;-72
2022/05/19 14:09:48;;;;;;;6.53;4.13;;;32.50;95.40;;;;;;4952609;28;20462;-72
2022/05/19 14:12:13;;;;;;;3.53;3.33;;;32.40;95.60;;;;;;4953152;28;20442;-72
2022/05/19 14:15:08;;;;;;;5.80;4.27;;;32.30;95.50;;;;;;4944228;28;20536;-74
2022/05/19 14:17:59;;;;;;;4.93;4.53;;;32.20;94.80;;;;;;4933197;29;20256;-72
2022/05/19 14:20:52;;;;;;;4.47;3.57;;;32.20;95.00;;;;;;4937570;28;20523;-70
2022/05/19 14:23:20;;;;;;;3.50;3.27;;;32.20;93.70;;;;;;4953020;28;20431;-73
2022/05/19 14:25:54;;;;;;;3.80;3.50;;;32.20;94.50;;;;;;4938566;28;20453;-72
2022/05/19 14:28:25;;;;;;;6.60;4.37;;;32.10;94.80;;;;;;4934306;29;20894;-73
2022/05/19 14:30:58;;;;;;;6.93;4.27;;;31.90;94.40;;;;;;4946861;29;20502;-72
2022/05/19 14:33:37;;;;;;;5.27;4.67;;;32.00;94.80;;;;;;4938207;28;20480;-74
2022/05/19 14:36:11;;;;;;;5.53;3.90;;;31.90;97.00;;;;;;4935437;29;20443;-72
2022/05/19 14:38:54;;;;;;;9.23;4.10;;;32.00;96.00;;;;;;4934182;29;20413;-72
2022/05/19 14:44:22;;;;;;;3.63;3.30;;;31.90;97.60;;;;;;4934275;29;20821;-71
2022/05/19 14:47:10;;;;;;;8.57;4.00;;;31.90;97.30;;;;;;4950009;28;20448;-72
2022/05/19 14:49:36;;;;;;;5.23;3.70;;;31.90;97.60;;;;;;4952936;28;20425;-72
2022/05/19 14:52:04;;;;;;;7.80;4.23;;;31.90;96.50;;;;;;4945738;28;20471;-71
2022/05/19 14:54:37;;;;;;;3.90;3.30;;;31.90;96.40;;;;;;4935930;29;20417;-72
2022/05/19 14:57:10;;;;;;;4.90;3.57;;;31.90;96.90;;;;;;4950597;28;20427;-73
2022/05/19 14:59:47;;;;;;;5.40;3.23;;;31.80;97.30;;;;;;4956862;28;20408;-73
2022/05/19 15:02:14;;;;;;;6.20;4.27;;;31.80;97.30;;;;;;4955274;29;20459;-75
2022/05/19 15:04:40;;;;;;;4.40;3.80;;;31.70;97.40;;;;;;4956758;28;20406;-72
2022/05/19 15:07:07;;;;;;;5.50;3.60;;;31.50;98.20;;;;;;4947250;28;20433;-72
2022/05/19 15:09:33;;;;;;;3.73;3.43;;;31.50;98.10;;;;;;4936450;29;20180;-72
2022/05/19 15:11:58;;;;;;;3.77;3.50;;;31.40;97.70;;;;;;4936906;28;20449;-72